| Date | Time | Temp. (oF) | Dew Point (oF) | Rel. Hum. (%) | Press. (in.) | Wind Dir. | Wind Speed (mph) | Hourly Rainfall (in.) |
|
|---|---|---|---|---|---|---|---|---|---|
| 1 | 03/26 | 00:00 | 56 | 54 | 93 | 29.80 | N | 4 | 0.00 |
| 2 | 03/25 | 23:00 | 56 | 54 | 93 | 29.78 | WNW | 4 | 0.00 |
| 3 | 03/25 | 22:00 | 56 | 54 | 95 | 29.77 | NW | 3 | 0.00 |
| 4 | 03/25 | 21:00 | 56 | 54 | 94 | 29.78 | WNW | 3 | 0.00 |
| 5 | 03/25 | 20:00 | 57 | 54 | 92 | 29.76 | SW | 4 | 0.00 |
| 6 | 03/25 | 19:00 | 58 | 54 | 88 | 29.75 | W | 5 | 0.00 |
| 7 | 03/25 | 18:00 | 61 | 55 | 81 | 29.75 | W | 4 | 0.00 |
| 8 | 03/25 | 17:00 | 61 | 54 | 80 | 29.73 | SW | 3 | 0.00 |
| 9 | 03/25 | 16:00 | 57 | 53 | 89 | 29.77 | E | 0 | 0.00 |
| 10 | 03/25 | 15:00 | 56 | 52 | 89 | 29.79 | NNE | 4 | 0.00 |
| 11 | 03/25 | 14:00 | 52 | 51 | 99 | 29.82 | W | 5 | 0.00 |
| 12 | 03/25 | 13:00 | 49 | 49 | 100 | 29.85 | ENE | 4 | 0.00 |
| 13 | 03/25 | 12:00 | 47 | 46 | 100 | 29.86 | NNE | 5 | 0.00 |
| 14 | 03/25 | 11:00 | 47 | 46 | 100 | 29.88 | NE | 3 | 0.00 |
| 15 | 03/25 | 10:00 | 47 | 46 | 100 | 29.88 | E | 4 | 0.00 |
| 16 | 03/25 | 09:00 | 46 | 45 | 100 | 29.87 | NNE | 3 | 0.00 |
| 17 | 03/25 | 08:00 | 45 | 45 | 100 | 29.86 | NNE | 7 | 0.00 |
| 18 | 03/25 | 07:00 | 45 | 45 | 100 | 29.85 | ENE | 5 | 0.00 |
| 19 | 03/25 | 06:00 | 45 | 45 | 100 | 29.87 | NNE | 4 | 0.00 |
| 20 | 03/25 | 05:00 | 45 | 45 | 100 | 29.87 | NE | 4 | 0.00 |
| 21 | 03/25 | 04:00 | 45 | 45 | 100 | 29.89 | ENE | 4 | 0.00 |
| 22 | 03/25 | 03:00 | 46 | 45 | 100 | 29.90 | ENE | 8 | 0.00 |
| 23 | 03/25 | 02:00 | 46 | 45 | 100 | 29.92 | SE | 4 | 0.00 |
| 24 | 03/25 | 01:00 | 46 | 45 | 100 | 29.93 | ENE | 4 | 0.01 |